sensor_id;sensor_type;location;lat;lon;timestamp;P1;durP1;ratioP1;P2;durP2;ratioP2
5945;SDS011;2998;48.206;16.394;2022-09-30T00:01:40;5.30;;;4.90;;
5945;SDS011;2998;48.206;16.394;2022-09-30T00:04:09;5.10;;;4.77;;
5945;SDS011;2998;48.206;16.394;2022-09-30T00:06:40;9.03;;;4.67;;
5945;SDS011;2998;48.206;16.394;2022-09-30T00:09:10;5.43;;;5.13;;
5945;SDS011;2998;48.206;16.394;2022-09-30T00:11:38;5.50;;;5.00;;
5945;SDS011;2998;48.206;16.394;2022-09-30T00:14:11;5.70;;;5.20;;
5945;SDS011;2998;48.206;16.394;2022-09-30T00:16:41;5.40;;;5.10;;
5945;SDS011;2998;48.206;16.394;2022-09-30T00:19:09;4.87;;;4.57;;
5945;SDS011;2998;48.206;16.394;2022-09-30T00:21:37;4.53;;;4.20;;
5945;SDS011;2998;48.206;16.394;2022-09-30T00:24:05;5.27;;;4.87;;
5945;SDS011;2998;48.206;16.394;2022-09-30T00:26:35;5.03;;;4.70;;
5945;SDS011;2998;48.206;16.394;2022-09-30T00:29:03;5.60;;;5.10;;
5945;SDS011;2998;48.206;16.394;2022-09-30T00:31:32;4.60;;;4.40;;
5945;SDS011;2998;48.206;16.394;2022-09-30T00:34:01;5.50;;;5.20;;
5945;SDS011;2998;48.206;16.394;2022-09-30T00:36:38;4.40;;;4.10;;
5945;SDS011;2998;48.206;16.394;2022-09-30T00:39:09;4.63;;;4.30;;
5945;SDS011;2998;48.206;16.394;2022-09-30T00:41:40;3.73;;;3.53;;
5945;SDS011;2998;48.206;16.394;2022-09-30T00:50:11;3.90;;;3.70;;
5945;SDS011;2998;48.206;16.394;2022-09-30T00:52:44;4.80;;;4.47;;
5945;SDS011;2998;48.206;16.394;2022-09-30T00:55:19;4.17;;;3.90;;
5945;SDS011;2998;48.206;16.394;2022-09-30T00:57:55;4.30;;;4.10;;
5945;SDS011;2998;48.206;16.394;2022-09-30T01:00:23;4.63;;;4.33;;
5945;SDS011;2998;48.206;16.394;2022-09-30T01:02:52;4.37;;;4.07;;
5945;SDS011;2998;48.206;16.394;2022-09-30T01:05:21;7.10;;;4.10;;
5945;SDS011;2998;48.206;16.394;2022-09-30T01:07:49;3.80;;;3.60;;
5945;SDS011;2998;48.206;16.394;2022-09-30T01:10:17;3.93;;;3.73;;
5945;SDS011;2998;48.206;16.394;2022-09-30T01:12:45;3.50;;;3.40;;
5945;SDS011;2998;48.206;16.394;2022-09-30T01:15:15;4.00;;;3.80;;
5945;SDS011;2998;48.206;16.394;2022-09-30T01:17:45;3.90;;;3.60;;
5945;SDS011;2998;48.206;16.394;2022-09-30T01:20:28;3.80;;;3.60;;
5945;SDS011;2998;48.206;16.394;2022-09-30T01:23:12;3.73;;;3.53;;
5945;SDS011;2998;48.206;16.394;2022-09-30T01:25:52;5.77;;;5.07;;
5945;SDS011;2998;48.206;16.394;2022-09-30T01:28:41;4.83;;;4.07;;
5945;SDS011;2998;48.206;16.394;2022-09-30T01:31:35;4.63;;;4.20;;
5945;SDS011;2998;48.206;16.394;2022-09-30T01:34:13;4.40;;;4.20;;
5945;SDS011;2998;48.206;16.394;2022-09-30T01:36:46;4.53;;;4.23;;
5945;SDS011;2998;48.206;16.394;2022-09-30T01:39:27;4.27;;;3.87;;
5945;SDS011;2998;48.206;16.394;2022-09-30T01:42:02;7.73;;;4.10;;
5945;SDS011;2998;48.206;16.394;2022-09-30T01:44:36;4.13;;;3.93;;
5945;SDS011;2998;48.206;16.394;2022-09-30T01:47:13;4.03;;;3.87;;
5945;SDS011;2998;48.206;16.394;2022-09-30T01:49:44;4.10;;;3.90;;
5945;SDS011;2998;48.206;16.394;2022-09-30T01:52:15;4.07;;;3.90;;
5945;SDS011;2998;48.206;16.394;2022-09-30T01:54:47;4.40;;;4.20;;
5945;SDS011;2998;48.206;16.394;2022-09-30T01:57:21;6.13;;;5.63;;
5945;SDS011;2998;48.206;16.394;2022-09-30T01:59:52;6.30;;;5.83;;
5945;SDS011;2998;48.206;16.394;2022-09-30T02:02:25;6.20;;;4.00;;
5945;SDS011;2998;48.206;16.394;2022-09-30T02:04:54;3.97;;;3.77;;
5945;SDS011;2998;48.206;16.394;2022-09-30T02:07:27;4.20;;;3.90;;
5945;SDS011;2998;48.206;16.394;2022-09-30T02:09:58;4.63;;;4.03;;
5945;SDS011;2998;48.206;16.394;2022-09-30T02:12:30;4.97;;;4.47;;
5945;SDS011;2998;48.206;16.394;2022-09-30T02:15:02;4.97;;;4.67;;
5945;SDS011;2998;48.206;16.394;2022-09-30T02:17:36;5.60;;;5.00;;
5945;SDS011;2998;48.206;16.394;2022-09-30T02:20:09;5.10;;;4.80;;
5945;SDS011;2998;48.206;16.394;2022-09-30T02:22:40;4.50;;;4.30;;
5945;SDS011;2998;48.206;16.394;2022-09-30T02:25:11;4.63;;;4.43;;
5945;SDS011;2998;48.206;16.394;2022-09-30T02:27:43;4.83;;;4.63;;
5945;SDS011;2998;48.206;16.394;2022-09-30T02:30:13;4.57;;;4.17;;
5945;SDS011;2998;48.206;16.394;2022-09-30T02:32:44;5.83;;;4.10;;
5945;SDS011;2998;48.206;16.394;2022-09-30T02:35:16;5.73;;;4.20;;
5945;SDS011;2998;48.206;16.394;2022-09-30T02:37:47;4.47;;;4.27;;
5945;SDS011;2998;48.206;16.394;2022-09-30T02:40:18;6.70;;;4.00;;
5945;SDS011;2998;48.206;16.394;2022-09-30T02:42:48;3.93;;;3.73;;
5945;SDS011;2998;48.206;16.394;2022-09-30T02:45:18;3.63;;;3.33;;
5945;SDS011;2998;48.206;16.394;2022-09-30T02:47:52;12.50;;;10.20;;
5945;SDS011;2998;48.206;16.394;2022-09-30T02:50:27;37.87;;;25.53;;
5945;SDS011;2998;48.206;16.394;2022-09-30T02:53:00;27.03;;;20.63;;
5945;SDS011;2998;48.206;16.394;2022-09-30T02:55:35;11.03;;;8.77;;
5945;SDS011;2998;48.206;16.394;2022-09-30T02:58:08;5.53;;;5.10;;
5945;SDS011;2998;48.206;16.394;2022-09-30T03:00:38;5.20;;;4.90;;
5945;SDS011;2998;48.206;16.394;2022-09-30T03:03:09;7.20;;;5.17;;
5945;SDS011;2998;48.206;16.394;2022-09-30T03:05:39;5.57;;;5.17;;
5945;SDS011;2998;48.206;16.394;2022-09-30T03:08:07;7.03;;;6.33;;
5945;SDS011;2998;48.206;16.394;2022-09-30T03:10:35;4.90;;;4.40;;
5945;SDS011;2998;48.206;16.394;2022-09-30T03:13:08;4.97;;;4.73;;
5945;SDS011;2998;48.206;16.394;2022-09-30T03:15:45;5.63;;;5.13;;
5945;SDS011;2998;48.206;16.394;2022-09-30T03:18:25;4.70;;;4.40;;
5945;SDS011;2998;48.206;16.394;2022-09-30T03:21:05;15.20;;;10.90;;
5945;SDS011;2998;48.206;16.394;2022-09-30T03:23:51;6.40;;;5.80;;
5945;SDS011;2998;48.206;16.394;2022-09-30T03:26:29;5.60;;;5.30;;
5945;SDS011;2998;48.206;16.394;2022-09-30T03:29:06;5.60;;;5.20;;
5945;SDS011;2998;48.206;16.394;2022-09-30T03:31:39;5.43;;;5.03;;
5945;SDS011;2998;48.206;16.394;2022-09-30T03:34:13;6.03;;;5.30;;
5945;SDS011;2998;48.206;16.394;2022-09-30T03:36:49;13.83;;;9.90;;
5945;SDS011;2998;48.206;16.394;2022-09-30T03:39:36;11.50;;;9.00;;
5945;SDS011;2998;48.206;16.394;2022-09-30T03:42:12;8.30;;;7.53;;
5945;SDS011;2998;48.206;16.394;2022-09-30T03:44:50;7.57;;;7.07;;
5945;SDS011;2998;48.206;16.394;2022-09-30T03:47:22;7.23;;;6.60;;
5945;SDS011;2998;48.206;16.394;2022-09-30T03:49:54;9.00;;;5.57;;
5945;SDS011;2998;48.206;16.394;2022-09-30T03:52:25;5.93;;;5.53;;
5945;SDS011;2998;48.206;16.394;2022-09-30T03:54:54;6.30;;;5.67;;
5945;SDS011;2998;48.206;16.394;2022-09-30T03:57:24;5.57;;;5.07;;
5945;SDS011;2998;48.206;16.394;2022-09-30T03:59:54;7.03;;;6.53;;
5945;SDS011;2998;48.206;16.394;2022-09-30T04:02:22;8.00;;;7.20;;
5945;SDS011;2998;48.206;16.394;2022-09-30T04:04:50;8.53;;;7.37;;
5945;SDS011;2998;48.206;16.394;2022-09-30T04:07:19;9.17;;;8.40;;
5945;SDS011;2998;48.206;16.394;2022-09-30T04:09:47;8.30;;;7.40;;
5945;SDS011;2998;48.206;16.394;2022-09-30T04:12:15;9.13;;;8.33;;
5945;SDS011;2998;48.206;16.394;2022-09-30T04:14:43;8.70;;;7.90;;
5945;SDS011;2998;48.206;16.394;2022-09-30T04:17:11;9.87;;;7.90;;
5945;SDS011;2998;48.206;16.394;2022-09-30T04:19:39;11.23;;;9.63;;
5945;SDS011;2998;48.206;16.394;2022-09-30T04:22:07;10.77;;;9.67;;
5945;SDS011;2998;48.206;16.394;2022-09-30T04:24:37;10.13;;;8.50;;
5945;SDS011;2998;48.206;16.394;2022-09-30T04:27:05;9.90;;;8.63;;
5945;SDS011;2998;48.206;16.394;2022-09-30T04:29:33;9.40;;;8.27;;
5945;SDS011;2998;48.206;16.394;2022-09-30T04:32:01;10.67;;;9.37;;
5945;SDS011;2998;48.206;16.394;2022-09-30T04:34:29;9.87;;;9.07;;
5945;SDS011;2998;48.206;16.394;2022-09-30T04:36:57;10.03;;;9.13;;
5945;SDS011;2998;48.206;16.394;2022-09-30T04:39:25;9.70;;;9.00;;
5945;SDS011;2998;48.206;16.394;2022-09-30T04:41:54;9.70;;;8.90;;
5945;SDS011;2998;48.206;16.394;2022-09-30T04:44:23;10.07;;;9.27;;
5945;SDS011;2998;48.206;16.394;2022-09-30T04:46:50;15.13;;;13.53;;
5945;SDS011;2998;48.206;16.394;2022-09-30T04:49:18;12.13;;;10.60;;
5945;SDS011;2998;48.206;16.394;2022-09-30T04:51:46;12.30;;;10.77;;
5945;SDS011;2998;48.206;16.394;2022-09-30T04:54:15;12.13;;;10.70;;
5945;SDS011;2998;48.206;16.394;2022-09-30T04:56:42;9.07;;;8.37;;
5945;SDS011;2998;48.206;16.394;2022-09-30T04:59:12;11.70;;;10.60;;
5945;SDS011;2998;48.206;16.394;2022-09-30T05:01:40;13.07;;;10.63;;
5945;SDS011;2998;48.206;16.394;2022-09-30T05:04:10;9.87;;;8.93;;
5945;SDS011;2998;48.206;16.394;2022-09-30T05:06:38;11.93;;;10.90;;
5945;SDS011;2998;48.206;16.394;2022-09-30T05:09:07;12.73;;;11.50;;
5945;SDS011;2998;48.206;16.394;2022-09-30T05:11:35;12.00;;;10.13;;
5945;SDS011;2998;48.206;16.394;2022-09-30T05:14:09;11.67;;;10.60;;
5945;SDS011;2998;48.206;16.394;2022-09-30T05:16:38;10.63;;;9.40;;
5945;SDS011;2998;48.206;16.394;2022-09-30T05:19:06;10.80;;;9.80;;
5945;SDS011;2998;48.206;16.394;2022-09-30T05:21:34;10.40;;;9.50;;
5945;SDS011;2998;48.206;16.394;2022-09-30T05:24:02;11.67;;;10.47;;
5945;SDS011;2998;48.206;16.394;2022-09-30T05:26:30;25.97;;;22.70;;
5945;SDS011;2998;48.206;16.394;2022-09-30T05:28:58;31.50;;;24.47;;
5945;SDS011;2998;48.206;16.394;2022-09-30T05:31:26;13.70;;;12.50;;
5945;SDS011;2998;48.206;16.394;2022-09-30T05:33:56;10.87;;;9.60;;
5945;SDS011;2998;48.206;16.394;2022-09-30T05:36:24;9.90;;;9.10;;
5945;SDS011;2998;48.206;16.394;2022-09-30T05:38:52;10.57;;;9.47;;
5945;SDS011;2998;48.206;16.394;2022-09-30T05:41:20;12.17;;;10.97;;
5945;SDS011;2998;48.206;16.394;2022-09-30T05:43:50;10.67;;;9.67;;
5945;SDS011;2998;48.206;16.394;2022-09-30T05:46:18;11.20;;;10.07;;
5945;SDS011;2998;48.206;16.394;2022-09-30T05:48:46;10.90;;;9.90;;
5945;SDS011;2998;48.206;16.394;2022-09-30T05:51:16;11.10;;;10.10;;
5945;SDS011;2998;48.206;16.394;2022-09-30T05:53:44;12.40;;;10.97;;
5945;SDS011;2998;48.206;16.394;2022-09-30T05:56:12;11.67;;;10.67;;
5945;SDS011;2998;48.206;16.394;2022-09-30T05:58:40;10.37;;;9.47;;
5945;SDS011;2998;48.206;16.394;2022-09-30T06:01:08;10.67;;;9.67;;
5945;SDS011;2998;48.206;16.394;2022-09-30T06:03:39;11.17;;;10.07;;
5945;SDS011;2998;48.206;16.394;2022-09-30T06:06:08;10.70;;;9.70;;
5945;SDS011;2998;48.206;16.394;2022-09-30T06:08:37;10.80;;;9.70;;
5945;SDS011;2998;48.206;16.394;2022-09-30T06:11:07;11.43;;;9.77;;
5945;SDS011;2998;48.206;16.394;2022-09-30T06:13:37;10.90;;;9.80;;
5945;SDS011;2998;48.206;16.394;2022-09-30T06:16:05;11.70;;;10.10;;
5945;SDS011;2998;48.206;16.394;2022-09-30T06:18:34;13.23;;;10.07;;
5945;SDS011;2998;48.206;16.394;2022-09-30T06:21:04;11.00;;;9.83;;
5945;SDS011;2998;48.206;16.394;2022-09-30T06:23:32;11.50;;;9.60;;
5945;SDS011;2998;48.206;16.394;2022-09-30T06:26:02;10.77;;;9.77;;
5945;SDS011;2998;48.206;16.394;2022-09-30T06:28:32;12.80;;;10.70;;
5945;SDS011;2998;48.206;16.394;2022-09-30T06:31:00;10.07;;;9.20;;
5945;SDS011;2998;48.206;16.394;2022-09-30T06:33:29;11.33;;;10.33;;
5945;SDS011;2998;48.206;16.394;2022-09-30T06:35:57;13.43;;;9.83;;
5945;SDS011;2998;48.206;16.394;2022-09-30T06:38:29;10.73;;;9.73;;
5945;SDS011;2998;48.206;16.394;2022-09-30T06:40:58;11.97;;;9.90;;
5945;SDS011;2998;48.206;16.394;2022-09-30T06:43:27;10.97;;;9.93;;
5945;SDS011;2998;48.206;16.394;2022-09-30T06:46:02;9.80;;;9.00;;
5945;SDS011;2998;48.206;16.394;2022-09-30T06:48:41;15.73;;;10.53;;
5945;SDS011;2998;48.206;16.394;2022-09-30T06:51:09;8.43;;;7.13;;
5945;SDS011;2998;48.206;16.394;2022-09-30T06:53:37;8.30;;;7.50;;
5945;SDS011;2998;48.206;16.394;2022-09-30T06:56:05;9.03;;;8.03;;
5945;SDS011;2998;48.206;16.394;2022-09-30T06:58:35;8.20;;;7.50;;
5945;SDS011;2998;48.206;16.394;2022-09-30T07:01:03;6.07;;;5.60;;
5945;SDS011;2998;48.206;16.394;2022-09-30T07:03:33;6.97;;;6.47;;
5945;SDS011;2998;48.206;16.394;2022-09-30T07:06:06;7.70;;;7.10;;
5945;SDS011;2998;48.206;16.394;2022-09-30T07:08:35;6.97;;;6.27;;
5945;SDS011;2998;48.206;16.394;2022-09-30T07:11:04;8.20;;;7.60;;
5945;SDS011;2998;48.206;16.394;2022-09-30T07:13:39;7.93;;;7.43;;
5945;SDS011;2998;48.206;16.394;2022-09-30T07:16:08;7.90;;;6.73;;
5945;SDS011;2998;48.206;16.394;2022-09-30T07:18:37;8.17;;;7.57;;
5945;SDS011;2998;48.206;16.394;2022-09-30T07:21:08;8.80;;;7.70;;
5945;SDS011;2998;48.206;16.394;2022-09-30T07:23:36;10.50;;;9.60;;
5945;SDS011;2998;48.206;16.394;2022-09-30T07:26:04;10.50;;;9.60;;
5945;SDS011;2998;48.206;16.394;2022-09-30T07:28:34;11.30;;;10.27;;
5945;SDS011;2998;48.206;16.394;2022-09-30T07:31:07;10.50;;;9.70;;
5945;SDS011;2998;48.206;16.394;2022-09-30T07:33:57;11.83;;;9.20;;
5945;SDS011;2998;48.206;16.394;2022-09-30T07:36:25;7.37;;;6.80;;
5945;SDS011;2998;48.206;16.394;2022-09-30T07:38:59;9.53;;;8.70;;
5945;SDS011;2998;48.206;16.394;2022-09-30T07:41:32;7.97;;;7.27;;
5945;SDS011;2998;48.206;16.394;2022-09-30T07:44:02;8.00;;;7.30;;
5945;SDS011;2998;48.206;16.394;2022-09-30T07:46:33;7.23;;;6.73;;
5945;SDS011;2998;48.206;16.394;2022-09-30T07:49:04;7.20;;;6.70;;
5945;SDS011;2998;48.206;16.394;2022-09-30T07:51:35;28.87;;;14.70;;
5945;SDS011;2998;48.206;16.394;2022-09-30T07:54:04;5.97;;;5.43;;
5945;SDS011;2998;48.206;16.394;2022-09-30T07:56:34;4.27;;;4.07;;
5945;SDS011;2998;48.206;16.394;2022-09-30T07:59:25;7.07;;;6.50;;
5945;SDS011;2998;48.206;16.394;2022-09-30T08:01:55;6.47;;;5.90;;
5945;SDS011;2998;48.206;16.394;2022-09-30T08:04:24;6.60;;;6.10;;
5945;SDS011;2998;48.206;16.394;2022-09-30T08:06:53;8.77;;;6.53;;
5945;SDS011;2998;48.206;16.394;2022-09-30T08:09:23;6.53;;;6.00;;
5945;SDS011;2998;48.206;16.394;2022-09-30T08:11:52;6.27;;;5.83;;
5945;SDS011;2998;48.206;16.394;2022-09-30T08:14:21;6.63;;;6.20;;
5945;SDS011;2998;48.206;16.394;2022-09-30T08:16:50;7.77;;;7.17;;
5945;SDS011;2998;48.206;16.394;2022-09-30T08:19:21;7.40;;;7.00;;
5945;SDS011;2998;48.206;16.394;2022-09-30T08:21:50;8.40;;;7.70;;
5945;SDS011;2998;48.206;16.394;2022-09-30T08:24:20;7.40;;;6.90;;
5945;SDS011;2998;48.206;16.394;2022-09-30T08:26:48;7.57;;;6.97;;
5945;SDS011;2998;48.206;16.394;2022-09-30T08:29:16;8.13;;;7.30;;
5945;SDS011;2998;48.206;16.394;2022-09-30T08:32:04;7.97;;;7.37;;
5945;SDS011;2998;48.206;16.394;2022-09-30T08:34:34;8.37;;;7.67;;
5945;SDS011;2998;48.206;16.394;2022-09-30T08:37:02;6.40;;;6.00;;
5945;SDS011;2998;48.206;16.394;2022-09-30T08:39:35;6.07;;;5.70;;
5945;SDS011;2998;48.206;16.394;2022-09-30T08:45:07;5.47;;;5.10;;
5945;SDS011;2998;48.206;16.394;2022-09-30T08:47:45;5.30;;;5.00;;
5945;SDS011;2998;48.206;16.394;2022-09-30T08:50:21;4.80;;;4.50;;
5945;SDS011;2998;48.206;16.394;2022-09-30T08:52:52;5.23;;;4.83;;
5945;SDS011;2998;48.206;16.394;2022-09-30T08:55:25;4.90;;;4.60;;
5945;SDS011;2998;48.206;16.394;2022-09-30T08:57:55;3.93;;;3.83;;
5945;SDS011;2998;48.206;16.394;2022-09-30T09:00:24;5.90;;;5.60;;
5945;SDS011;2998;48.206;16.394;2022-09-30T09:02:52;4.90;;;4.50;;
5945;SDS011;2998;48.206;16.394;2022-09-30T09:05:30;4.77;;;4.47;;
5945;SDS011;2998;48.206;16.394;2022-09-30T09:08:03;4.20;;;3.90;;
5945;SDS011;2998;48.206;16.394;2022-09-30T09:10:37;3.40;;;3.30;;
5945;SDS011;2998;48.206;16.394;2022-09-30T09:13:11;2.87;;;2.77;;
5945;SDS011;2998;48.206;16.394;2022-09-30T09:15:51;3.27;;;3.07;;
5945;SDS011;2998;48.206;16.394;2022-09-30T09:18:40;5.20;;;4.90;;
5945;SDS011;2998;48.206;16.394;2022-09-30T09:21:15;3.03;;;2.83;;
5945;SDS011;2998;48.206;16.394;2022-09-30T09:23:48;2.80;;;2.70;;
5945;SDS011;2998;48.206;16.394;2022-09-30T09:26:16;2.50;;;2.30;;
5945;SDS011;2998;48.206;16.394;2022-09-30T09:28:48;2.67;;;2.57;;
5945;SDS011;2998;48.206;16.394;2022-09-30T09:31:24;4.50;;;4.30;;
5945;SDS011;2998;48.206;16.394;2022-09-30T09:33:53;2.67;;;2.53;;
5945;SDS011;2998;48.206;16.394;2022-09-30T09:36:29;2.93;;;2.73;;
5945;SDS011;2998;48.206;16.394;2022-09-30T09:42:12;2.60;;;2.50;;
5945;SDS011;2998;48.206;16.394;2022-09-30T09:44:52;3.87;;;3.10;;
5945;SDS011;2998;48.206;16.394;2022-09-30T09:47:22;2.83;;;2.73;;
5945;SDS011;2998;48.206;16.394;2022-09-30T09:49:51;3.50;;;2.80;;
5945;SDS011;2998;48.206;16.394;2022-09-30T09:55:16;2.30;;;2.20;;
5945;SDS011;2998;48.206;16.394;2022-09-30T09:57:45;2.63;;;2.43;;
5945;SDS011;2998;48.206;16.394;2022-09-30T10:00:21;2.67;;;2.57;;
5945;SDS011;2998;48.206;16.394;2022-09-30T10:03:23;2.60;;;2.50;;
5945;SDS011;2998;48.206;16.394;2022-09-30T10:06:00;2.30;;;2.20;;
5945;SDS011;2998;48.206;16.394;2022-09-30T10:08:32;2.43;;;2.33;;
5945;SDS011;2998;48.206;16.394;2022-09-30T10:11:01;2.27;;;2.17;;
5945;SDS011;2998;48.206;16.394;2022-09-30T10:13:31;2.80;;;2.70;;
5945;SDS011;2998;48.206;16.394;2022-09-30T10:16:08;2.67;;;2.47;;
5945;SDS011;2998;48.206;16.394;2022-09-30T10:18:52;2.20;;;2.10;;
5945;SDS011;2998;48.206;16.394;2022-09-30T10:21:21;2.20;;;2.10;;
5945;SDS011;2998;48.206;16.394;2022-09-30T10:23:51;1.60;;;1.50;;
5945;SDS011;2998;48.206;16.394;2022-09-30T10:26:19;1.97;;;1.87;;
5945;SDS011;2998;48.206;16.394;2022-09-30T10:28:51;2.77;;;2.23;;
5945;SDS011;2998;48.206;16.394;2022-09-30T10:31:21;3.10;;;2.60;;
5945;SDS011;2998;48.206;16.394;2022-09-30T10:33:52;2.27;;;2.17;;
5945;SDS011;2998;48.206;16.394;2022-09-30T10:36:27;2.10;;;2.00;;
5945;SDS011;2998;48.206;16.394;2022-09-30T10:38:58;2.50;;;2.37;;
5945;SDS011;2998;48.206;16.394;2022-09-30T10:41:33;3.00;;;2.90;;
5945;SDS011;2998;48.206;16.394;2022-09-30T10:44:02;4.17;;;3.30;;
5945;SDS011;2998;48.206;16.394;2022-09-30T10:46:33;2.47;;;2.37;;
5945;SDS011;2998;48.206;16.394;2022-09-30T10:49:07;2.60;;;2.50;;
5945;SDS011;2998;48.206;16.394;2022-09-30T10:51:37;2.40;;;2.30;;
5945;SDS011;2998;48.206;16.394;2022-09-30T10:54:09;2.37;;;2.27;;
5945;SDS011;2998;48.206;16.394;2022-09-30T10:57:19;2.13;;;2.03;;
5945;SDS011;2998;48.206;16.394;2022-09-30T10:59:49;2.50;;;2.40;;
5945;SDS011;2998;48.206;16.394;2022-09-30T11:02:21;12.10;;;10.70;;
5945;SDS011;2998;48.206;16.394;2022-09-30T11:04:54;12.43;;;6.80;;
5945;SDS011;2998;48.206;16.394;2022-09-30T11:07:27;2.20;;;2.10;;
5945;SDS011;2998;48.206;16.394;2022-09-30T11:09:59;11.60;;;7.87;;
5945;SDS011;2998;48.206;16.394;2022-09-30T11:12:34;2.93;;;1.90;;
5945;SDS011;2998;48.206;16.394;2022-09-30T11:15:08;2.10;;;2.00;;
5945;SDS011;2998;48.206;16.394;2022-09-30T11:17:41;2.23;;;2.13;;
5945;SDS011;2998;48.206;16.394;2022-09-30T11:20:16;2.13;;;2.03;;
5945;SDS011;2998;48.206;16.394;2022-09-30T11:22:51;5.10;;;4.60;;
5945;SDS011;2998;48.206;16.394;2022-09-30T11:25:23;2.17;;;2.07;;
5945;SDS011;2998;48.206;16.394;2022-09-30T11:28:00;2.73;;;1.80;;
5945;SDS011;2998;48.206;16.394;2022-09-30T11:30:36;1.53;;;1.43;;
5945;SDS011;2998;48.206;16.394;2022-09-30T11:33:16;1.60;;;1.50;;
5945;SDS011;2998;48.206;16.394;2022-09-30T11:35:54;3.23;;;1.50;;
5945;SDS011;2998;48.206;16.394;2022-09-30T11:41:39;1.30;;;1.20;;
5945;SDS011;2998;48.206;16.394;2022-09-30T11:44:16;2.80;;;2.60;;
5945;SDS011;2998;48.206;16.394;2022-09-30T11:46:59;2.27;;;2.17;;
5945;SDS011;2998;48.206;16.394;2022-09-30T11:49:43;1.80;;;1.70;;
5945;SDS011;2998;48.206;16.394;2022-09-30T11:52:20;1.87;;;1.40;;
5945;SDS011;2998;48.206;16.394;2022-09-30T11:54:56;1.90;;;1.80;;
5945;SDS011;2998;48.206;16.394;2022-09-30T11:57:33;1.50;;;1.40;;
5945;SDS011;2998;48.206;16.394;2022-09-30T12:00:08;1.20;;;1.20;;
5945;SDS011;2998;48.206;16.394;2022-09-30T12:02:41;2.90;;;2.47;;
5945;SDS011;2998;48.206;16.394;2022-09-30T12:05:12;5.23;;;1.60;;
5945;SDS011;2998;48.206;16.394;2022-09-30T12:07:45;1.80;;;1.70;;
5945;SDS011;2998;48.206;16.394;2022-09-30T12:10:17;2.67;;;2.50;;
5945;SDS011;2998;48.206;16.394;2022-09-30T12:12:48;3.17;;;2.87;;
5945;SDS011;2998;48.206;16.394;2022-09-30T12:15:21;1.30;;;1.30;;
5945;SDS011;2998;48.206;16.394;2022-09-30T12:17:53;1.70;;;1.60;;
5945;SDS011;2998;48.206;16.394;2022-09-30T12:20:28;21.10;;;15.07;;
5945;SDS011;2998;48.206;16.394;2022-09-30T12:23:04;7.17;;;5.50;;
5945;SDS011;2998;48.206;16.394;2022-09-30T12:25:38;2.10;;;1.97;;
5945;SDS011;2998;48.206;16.394;2022-09-30T12:28:12;2.23;;;2.13;;
5945;SDS011;2998;48.206;16.394;2022-09-30T12:31:08;2.00;;;1.90;;
5945;SDS011;2998;48.206;16.394;2022-09-30T12:33:47;3.10;;;3.00;;
5945;SDS011;2998;48.206;16.394;2022-09-30T12:36:29;3.50;;;2.83;;
5945;SDS011;2998;48.206;16.394;2022-09-30T12:39:22;8.20;;;7.17;;
5945;SDS011;2998;48.206;16.394;2022-09-30T12:42:02;2.50;;;2.40;;
5945;SDS011;2998;48.206;16.394;2022-09-30T12:44:43;1.83;;;1.63;;
5945;SDS011;2998;48.206;16.394;2022-09-30T12:47:26;16.40;;;10.30;;
5945;SDS011;2998;48.206;16.394;2022-09-30T12:49:58;3.67;;;2.77;;
5945;SDS011;2998;48.206;16.394;2022-09-30T12:52:29;2.47;;;2.37;;
5945;SDS011;2998;48.206;16.394;2022-09-30T12:54:59;3.30;;;3.10;;
5945;SDS011;2998;48.206;16.394;2022-09-30T12:57:29;3.30;;;3.10;;
5945;SDS011;2998;48.206;16.394;2022-09-30T13:00:00;3.00;;;2.80;;
5945;SDS011;2998;48.206;16.394;2022-09-30T13:02:32;1.90;;;1.80;;
5945;SDS011;2998;48.206;16.394;2022-09-30T13:08:21;2.07;;;1.97;;
5945;SDS011;2998;48.206;16.394;2022-09-30T13:11:04;3.80;;;3.50;;
5945;SDS011;2998;48.206;16.394;2022-09-30T13:13:33;2.67;;;2.00;;
5945;SDS011;2998;48.206;16.394;2022-09-30T13:19:37;2.23;;;2.13;;
5945;SDS011;2998;48.206;16.394;2022-09-30T13:25:19;2.77;;;2.57;;
5945;SDS011;2998;48.206;16.394;2022-09-30T13:27:48;2.17;;;1.90;;
5945;SDS011;2998;48.206;16.394;2022-09-30T13:30:38;2.17;;;2.07;;
5945;SDS011;2998;48.206;16.394;2022-09-30T13:33:26;2.00;;;1.90;;
5945;SDS011;2998;48.206;16.394;2022-09-30T13:36:06;5.80;;;5.13;;
5945;SDS011;2998;48.206;16.394;2022-09-30T13:38:45;2.13;;;2.03;;
5945;SDS011;2998;48.206;16.394;2022-09-30T13:41:33;1.53;;;1.40;;
5945;SDS011;2998;48.206;16.394;2022-09-30T13:44:04;2.90;;;2.17;;
5945;SDS011;2998;48.206;16.394;2022-09-30T13:46:35;4.90;;;3.57;;
5945;SDS011;2998;48.206;16.394;2022-09-30T13:49:09;11.60;;;7.60;;
5945;SDS011;2998;48.206;16.394;2022-09-30T13:51:41;2.57;;;2.47;;
5945;SDS011;2998;48.206;16.394;2022-09-30T13:54:11;8.30;;;6.90;;
5945;SDS011;2998;48.206;16.394;2022-09-30T13:56:48;4.53;;;3.77;;
5945;SDS011;2998;48.206;16.394;2022-09-30T13:59:19;2.70;;;2.60;;
5945;SDS011;2998;48.206;16.394;2022-09-30T14:02:04;2.10;;;2.00;;
5945;SDS011;2998;48.206;16.394;2022-09-30T14:07:48;2.20;;;2.10;;
5945;SDS011;2998;48.206;16.394;2022-09-30T14:10:34;2.23;;;2.13;;
5945;SDS011;2998;48.206;16.394;2022-09-30T14:13:11;2.50;;;2.30;;
5945;SDS011;2998;48.206;16.394;2022-09-30T14:15:51;2.63;;;2.53;;
5945;SDS011;2998;48.206;16.394;2022-09-30T14:18:46;2.90;;;2.53;;
5945;SDS011;2998;48.206;16.394;2022-09-30T14:21:43;3.10;;;2.90;;
5945;SDS011;2998;48.206;16.394;2022-09-30T14:24:15;4.20;;;3.47;;
5945;SDS011;2998;48.206;16.394;2022-09-30T14:26:55;2.73;;;2.60;;
5945;SDS011;2998;48.206;16.394;2022-09-30T14:29:47;2.40;;;2.30;;
5945;SDS011;2998;48.206;16.394;2022-09-30T14:32:25;1.90;;;1.80;;
5945;SDS011;2998;48.206;16.394;2022-09-30T14:34:55;1.90;;;1.80;;
5945;SDS011;2998;48.206;16.394;2022-09-30T14:37:34;1.70;;;1.60;;
5945;SDS011;2998;48.206;16.394;2022-09-30T14:40:07;6.33;;;5.83;;
5945;SDS011;2998;48.206;16.394;2022-09-30T14:42:38;1.93;;;1.83;;
5945;SDS011;2998;48.206;16.394;2022-09-30T14:45:08;5.83;;;2.40;;
5945;SDS011;2998;48.206;16.394;2022-09-30T14:47:37;2.90;;;2.80;;
5945;SDS011;2998;48.206;16.394;2022-09-30T14:50:10;11.37;;;9.70;;
5945;SDS011;2998;48.206;16.394;2022-09-30T14:52:43;4.27;;;3.30;;
5945;SDS011;2998;48.206;16.394;2022-09-30T14:55:19;4.00;;;3.70;;
5945;SDS011;2998;48.206;16.394;2022-09-30T14:57:52;2.37;;;2.03;;
5945;SDS011;2998;48.206;16.394;2022-09-30T15:00:25;3.00;;;2.80;;
5945;SDS011;2998;48.206;16.394;2022-09-30T15:02:57;12.53;;;7.87;;
5945;SDS011;2998;48.206;16.394;2022-09-30T15:05:25;44.40;;;19.80;;
5945;SDS011;2998;48.206;16.394;2022-09-30T15:07:55;9.10;;;6.90;;
5945;SDS011;2998;48.206;16.394;2022-09-30T15:10:23;4.70;;;4.33;;
5945;SDS011;2998;48.206;16.394;2022-09-30T15:12:52;14.93;;;10.13;;
5945;SDS011;2998;48.206;16.394;2022-09-30T15:15:22;16.90;;;10.67;;
5945;SDS011;2998;48.206;16.394;2022-09-30T15:18:00;2.77;;;2.57;;
5945;SDS011;2998;48.206;16.394;2022-09-30T15:20:42;3.10;;;3.00;;
5945;SDS011;2998;48.206;16.394;2022-09-30T15:23:14;3.80;;;3.50;;
5945;SDS011;2998;48.206;16.394;2022-09-30T15:25:43;2.70;;;2.50;;
5945;SDS011;2998;48.206;16.394;2022-09-30T15:28:11;4.70;;;4.30;;
5945;SDS011;2998;48.206;16.394;2022-09-30T15:30:39;2.73;;;2.63;;
5945;SDS011;2998;48.206;16.394;2022-09-30T15:33:11;2.93;;;2.83;;
5945;SDS011;2998;48.206;16.394;2022-09-30T15:35:40;2.23;;;2.10;;
5945;SDS011;2998;48.206;16.394;2022-09-30T15:38:09;2.97;;;2.80;;
5945;SDS011;2998;48.206;16.394;2022-09-30T15:40:46;2.80;;;2.70;;
5945;SDS011;2998;48.206;16.394;2022-09-30T15:43:28;17.63;;;8.87;;
5945;SDS011;2998;48.206;16.394;2022-09-30T15:46:09;14.63;;;4.20;;
5945;SDS011;2998;48.206;16.394;2022-09-30T15:48:56;7.33;;;6.40;;
5945;SDS011;2998;48.206;16.394;2022-09-30T15:51:32;9.80;;;5.27;;
5945;SDS011;2998;48.206;16.394;2022-09-30T15:54:22;8.77;;;7.70;;
5945;SDS011;2998;48.206;16.394;2022-09-30T15:56:59;5.33;;;4.90;;
5945;SDS011;2998;48.206;16.394;2022-09-30T16:02:25;58.57;;;28.77;;
5945;SDS011;2998;48.206;16.394;2022-09-30T16:04:54;25.20;;;13.17;;
5945;SDS011;2998;48.206;16.394;2022-09-30T16:07:23;13.03;;;7.40;;